createdAt,value
2023-02-15T00:00:01.526Z,42.38
2023-02-15T00:02:27.888Z,43.20
2023-02-15T00:04:54.700Z,49.60
2023-02-15T00:07:21.051Z,45.17
2023-02-15T00:09:47.605Z,46.88
2023-02-15T00:12:14.673Z,47.78
2023-02-15T00:14:41.007Z,48.35
2023-02-15T00:17:07.275Z,47.58
2023-02-15T00:19:33.657Z,49.17
2023-02-15T00:22:00.112Z,48.30
2023-02-15T00:24:26.492Z,54.03
2023-02-15T00:26:52.789Z,52.50
2023-02-15T00:29:19.962Z,52.13
2023-02-15T00:31:46.802Z,51.58
2023-02-15T00:34:23.462Z,52.47
2023-02-15T00:36:50.367Z,57.90
2023-02-15T00:39:17.297Z,56.13
2023-02-15T00:41:44.326Z,57.13
2023-02-15T00:44:10.735Z,59.70
2023-02-15T00:46:37.153Z,59.65
2023-02-15T00:49:03.634Z,54.70
2023-02-15T00:51:31.075Z,58.40
2023-02-15T00:53:57.357Z,54.47
2023-02-15T00:56:23.745Z,60.20
2023-02-15T00:58:50.047Z,51.00
2023-02-15T01:01:18.087Z,55.53
2023-02-15T01:03:44.776Z,50.22
2023-02-15T01:06:11.602Z,48.13
2023-02-15T01:08:38.214Z,46.67
2023-02-15T01:11:06.163Z,50.38
2023-02-15T01:13:32.542Z,44.75
2023-02-15T01:15:59.391Z,46.47
2023-02-15T01:18:26.458Z,49.88
2023-02-15T01:20:53.042Z,46.33
2023-02-15T01:23:19.484Z,50.08
2023-02-15T01:25:46.430Z,49.22
2023-02-15T01:28:12.755Z,48.03
2023-02-15T01:30:39.477Z,55.50
2023-02-15T01:33:05.803Z,53.47
2023-02-15T01:35:32.521Z,57.00
2023-02-15T01:37:58.939Z,58.75
2023-02-15T01:40:25.544Z,54.83
2023-02-15T01:42:55.576Z,62.38
2023-02-15T01:45:26.669Z,52.33
2023-02-15T01:48:11.734Z,57.92
2023-02-15T01:50:43.763Z,55.78
2023-02-15T01:53:16.588Z,50.97
2023-02-15T01:56:00.142Z,57.38
2023-02-15T01:58:28.095Z,52.80
2023-02-15T02:00:55.637Z,52.05
2023-02-15T02:03:24.878Z,52.22
2023-02-15T02:05:51.190Z,49.88
2023-02-15T02:08:17.529Z,59.58
2023-02-15T02:10:43.834Z,56.63
2023-02-15T02:13:10.129Z,57.05
2023-02-15T02:15:48.670Z,58.17
2023-02-15T02:18:33.880Z,54.13
2023-02-15T02:21:08.967Z,58.67
2023-02-15T02:23:59.843Z,53.55
2023-02-15T02:26:26.203Z,60.80
2023-02-15T02:29:11.329Z,61.03
2023-02-15T02:31:53.026Z,65.00
2023-02-15T02:34:34.532Z,66.50
2023-02-15T02:37:30.226Z,58.05
2023-02-15T02:40:05.061Z,60.13
2023-02-15T02:42:39.863Z,58.15
2023-02-15T02:45:08.830Z,59.50
2023-02-15T02:47:42.209Z,52.95
2023-02-15T02:50:10.707Z,60.83
2023-02-15T02:52:37.133Z,61.72
2023-02-15T02:55:05.542Z,51.25
2023-02-15T02:57:33.471Z,62.80
2023-02-15T03:00:02.052Z,67.75
2023-02-15T03:02:32.799Z,51.95
2023-02-15T03:05:04.519Z,52.50
2023-02-15T03:07:31.983Z,51.35
2023-02-15T03:10:01.456Z,56.40
2023-02-15T03:12:30.739Z,54.60
2023-02-15T03:15:01.857Z,51.38
2023-02-15T03:17:29.618Z,58.35
2023-02-15T03:19:57.690Z,60.30
2023-02-15T03:22:29.011Z,52.78
2023-02-15T03:25:07.523Z,52.33
2023-02-15T03:27:39.308Z,66.72
2023-02-15T03:30:06.847Z,57.05
2023-02-15T03:32:33.965Z,53.28
2023-02-15T03:35:00.454Z,53.80
2023-02-15T03:37:29.477Z,50.35
2023-02-15T03:40:23.250Z,51.58
2023-02-15T03:42:57.475Z,58.40
2023-02-15T03:45:26.138Z,57.30
2023-02-15T03:47:53.476Z,58.42
2023-02-15T03:50:40.543Z,61.65
2023-02-15T03:53:08.978Z,59.58
2023-02-15T03:55:35.655Z,73.57
2023-02-15T03:58:20.786Z,64.80
2023-02-15T04:01:09.424Z,62.10
2023-02-15T04:03:45.682Z,70.05
2023-02-15T04:06:11.987Z,59.03
2023-02-15T04:08:57.182Z,44.67
2023-02-15T04:11:23.480Z,45.80
2023-02-15T04:13:57.220Z,49.30
2023-02-15T04:16:24.123Z,48.72
2023-02-15T04:19:09.279Z,48.40
2023-02-15T04:21:54.162Z,50.38
2023-02-15T04:24:39.490Z,54.53
2023-02-15T04:27:06.647Z,54.08
2023-02-15T04:29:32.942Z,53.58
2023-02-15T04:32:00.313Z,54.17
2023-02-15T04:34:26.960Z,53.80
2023-02-15T04:36:53.270Z,54.97
2023-02-15T04:39:19.862Z,73.80
2023-02-15T04:41:46.521Z,60.67
2023-02-15T04:44:12.960Z,62.15
2023-02-15T04:46:39.222Z,69.88
2023-02-15T04:49:05.534Z,73.15
2023-02-15T04:51:31.798Z,73.78
2023-02-15T04:53:58.088Z,67.15
2023-02-15T04:56:24.452Z,68.32
2023-02-15T04:58:50.824Z,83.03
2023-02-15T05:01:17.975Z,83.22
2023-02-15T05:03:44.323Z,72.05
2023-02-15T05:06:10.647Z,75.53
2023-02-15T05:08:36.993Z,77.57
2023-02-15T05:11:03.286Z,80.07
2023-02-15T05:13:29.778Z,79.53
2023-02-15T05:15:56.164Z,81.07
2023-02-15T05:18:22.845Z,87.47
2023-02-15T05:20:49.785Z,78.05
2023-02-15T05:23:16.508Z,78.18
2023-02-15T05:26:05.210Z,79.90
2023-02-15T05:28:31.450Z,76.68
2023-02-15T05:31:05.676Z,84.40
2023-02-15T05:33:32.814Z,83.32
2023-02-15T05:35:59.323Z,85.28
2023-02-15T05:38:25.723Z,73.72
2023-02-15T05:40:52.668Z,80.28
2023-02-15T05:43:19.314Z,89.47
2023-02-15T05:45:46.438Z,95.03
2023-02-15T05:48:12.763Z,88.10
2023-02-15T05:50:39.050Z,68.78
2023-02-15T05:53:05.309Z,69.55
2023-02-15T05:55:31.632Z,72.38
2023-02-15T05:57:58.093Z,71.88
2023-02-15T06:00:26.147Z,81.00
2023-02-15T06:02:52.465Z,69.05
2023-02-15T06:05:18.721Z,73.45
2023-02-15T06:07:45.753Z,75.43
2023-02-15T06:10:12.188Z,71.80
2023-02-15T06:12:38.512Z,70.45
2023-02-15T06:15:04.889Z,72.78
2023-02-15T06:17:31.358Z,60.42
2023-02-15T06:19:57.689Z,79.30
2023-02-15T06:22:24.029Z,67.60
2023-02-15T06:24:50.353Z,53.75
2023-02-15T06:27:16.771Z,69.30
2023-02-15T06:29:43.063Z,72.97
2023-02-15T06:32:09.374Z,63.58
2023-02-15T06:34:35.691Z,61.80
2023-02-15T06:37:01.978Z,70.03
2023-02-15T06:39:28.306Z,78.43
2023-02-15T06:41:54.569Z,74.72
2023-02-15T06:44:20.926Z,76.03
2023-02-15T06:46:47.261Z,74.05
2023-02-15T06:49:13.678Z,73.50
2023-02-15T06:51:40.045Z,71.25
2023-02-15T06:54:06.414Z,69.80
2023-02-15T06:56:32.819Z,68.32
2023-02-15T06:58:59.322Z,65.13
2023-02-15T07:01:25.990Z,56.92
2023-02-15T07:03:52.338Z,60.15
2023-02-15T07:06:18.605Z,66.57
2023-02-15T07:08:45.152Z,75.80
2023-02-15T07:11:30.220Z,63.33
2023-02-15T07:13:56.575Z,65.75
2023-02-15T07:16:23.067Z,61.33
2023-02-15T07:18:49.518Z,64.40
2023-02-15T07:21:15.890Z,49.13
2023-02-15T07:23:42.249Z,58.67
2023-02-15T07:26:08.698Z,65.13
2023-02-15T07:28:35.419Z,39.95
2023-02-15T07:31:02.627Z,52.33
2023-02-15T07:33:30.813Z,56.88
2023-02-15T07:35:58.885Z,57.45
2023-02-15T07:38:30.756Z,62.58
2023-02-15T07:41:05.295Z,52.70
2023-02-15T07:43:33.545Z,52.58
2023-02-15T07:46:04.218Z,51.42
2023-02-15T07:48:30.727Z,51.85
2023-02-15T07:51:00.786Z,49.85
2023-02-15T07:53:27.375Z,46.72
2023-02-15T07:55:53.807Z,55.17
2023-02-15T07:58:20.306Z,48.63
2023-02-15T08:01:06.850Z,50.45
2023-02-15T08:03:33.196Z,48.17
2023-02-15T08:06:00.482Z,46.17
2023-02-15T08:08:30.649Z,46.13
2023-02-15T08:11:19.816Z,43.13
2023-02-15T08:13:56.086Z,36.97
2023-02-15T08:16:23.415Z,36.65
2023-02-15T08:18:49.780Z,42.67
2023-02-15T08:21:16.353Z,40.83
2023-02-15T08:23:42.599Z,45.42
2023-02-15T08:26:08.902Z,44.40
2023-02-15T08:28:35.146Z,39.28
2023-02-15T08:31:14.512Z,37.88
2023-02-15T08:33:41.574Z,44.65
2023-02-15T08:36:11.918Z,35.28
2023-02-15T08:38:38.417Z,40.53
2023-02-15T08:41:16.973Z,38.75
2023-02-15T08:43:43.928Z,39.50
2023-02-15T08:46:13.069Z,38.45
2023-02-15T08:48:39.728Z,40.45
2023-02-15T08:51:13.465Z,37.67
2023-02-15T08:53:40.661Z,38.42
2023-02-15T08:56:07.575Z,36.35
2023-02-15T08:58:34.235Z,36.63
2023-02-15T09:01:03.068Z,38.90
2023-02-15T09:03:29.717Z,35.65
2023-02-15T09:06:00.125Z,35.75
2023-02-15T09:08:26.842Z,34.65
2023-02-15T09:10:53.097Z,38.50
2023-02-15T09:13:19.497Z,36.63
2023-02-15T09:15:45.937Z,40.38
2023-02-15T09:18:13.146Z,38.55
2023-02-15T09:20:39.448Z,39.08
2023-02-15T09:23:05.778Z,42.97
2023-02-15T09:25:32.070Z,35.08
2023-02-15T09:27:58.425Z,40.80
2023-02-15T09:30:24.887Z,35.17
2023-02-15T09:32:51.308Z,40.88
2023-02-15T09:35:17.662Z,37.65
2023-02-15T09:37:44.001Z,37.08
2023-02-15T09:40:13.251Z,38.13
2023-02-15T09:42:42.435Z,35.55
2023-02-15T09:45:19.963Z,37.08
2023-02-15T09:48:13.408Z,38.00
2023-02-15T09:50:58.319Z,38.25
2023-02-15T09:53:30.337Z,38.20
2023-02-15T09:56:07.105Z,40.75
2023-02-15T09:58:51.814Z,38.72
2023-02-15T10:01:30.430Z,36.90
2023-02-15T10:04:10.515Z,34.83
2023-02-15T10:06:43.271Z,45.17
2023-02-15T10:09:12.635Z,36.88
2023-02-15T10:11:44.072Z,40.10
2023-02-15T10:14:18.823Z,33.95
2023-02-15T10:16:57.249Z,34.63
2023-02-15T10:19:58.641Z,34.50
2023-02-15T10:22:49.340Z,32.85
2023-02-15T10:25:15.626Z,36.63
2023-02-15T10:27:49.428Z,33.60
2023-02-15T10:30:18.587Z,30.70
2023-02-15T10:32:44.932Z,29.95
2023-02-15T10:35:21.064Z,30.65
2023-02-15T10:37:54.501Z,30.30
2023-02-15T10:40:34.295Z,31.90
2023-02-15T10:43:19.051Z,34.15
2023-02-15T10:45:54.548Z,33.53
2023-02-15T10:48:31.265Z,34.05
2023-02-15T10:51:05.169Z,32.25
2023-02-15T10:53:50.811Z,34.30
2023-02-15T10:56:24.704Z,30.02
2023-02-15T10:59:13.795Z,35.67
2023-02-15T11:01:48.205Z,34.35
2023-02-15T11:04:17.539Z,30.27
2023-02-15T11:06:49.233Z,32.67
2023-02-15T11:09:19.013Z,31.20
2023-02-15T11:11:48.154Z,29.75
2023-02-15T11:14:39.533Z,28.75
2023-02-15T11:17:09.732Z,30.05
2023-02-15T11:19:43.698Z,28.77
2023-02-15T11:22:11.022Z,29.75
2023-02-15T11:24:41.735Z,27.90
2023-02-15T11:27:15.759Z,28.15
2023-02-15T11:29:46.873Z,25.95
2023-02-15T11:32:31.059Z,24.63
2023-02-15T11:34:57.315Z,26.40
2023-02-15T11:37:28.658Z,26.73
2023-02-15T11:39:55.665Z,25.85
2023-02-15T11:42:24.066Z,26.75
2023-02-15T11:44:59.249Z,25.90
2023-02-15T11:47:25.577Z,26.35
2023-02-15T11:49:51.853Z,27.48
2023-02-15T11:52:19.314Z,26.20
2023-02-15T11:54:51.022Z,26.05
2023-02-15T11:57:17.407Z,27.00
2023-02-15T11:59:47.342Z,26.90
2023-02-15T12:02:19.390Z,27.48
2023-02-15T12:04:49.668Z,26.90
2023-02-15T12:07:26.526Z,26.25
2023-02-15T12:10:07.874Z,26.40
2023-02-15T12:12:34.938Z,28.50
2023-02-15T12:15:06.597Z,27.42
2023-02-15T12:17:40.349Z,29.58
2023-02-15T12:22:34.239Z,28.10
2023-02-15T12:25:02.041Z,29.90
2023-02-15T12:27:33.180Z,28.55
2023-02-15T12:30:05.386Z,29.05
2023-02-15T12:32:36.708Z,28.15
2023-02-15T12:35:23.354Z,30.42
2023-02-15T12:37:57.678Z,28.88
2023-02-15T12:40:30.890Z,30.40
2023-02-15T12:45:27.004Z,27.90
2023-02-15T12:48:22.427Z,29.67
2023-02-15T12:51:06.332Z,28.23
2023-02-15T12:56:00.640Z,28.10
2023-02-15T12:58:28.414Z,30.05
2023-02-15T13:01:04.190Z,30.08
2023-02-15T13:03:30.946Z,30.02
2023-02-15T13:05:58.888Z,29.95
2023-02-15T13:08:29.798Z,31.25
2023-02-15T13:10:57.666Z,30.88
2023-02-15T13:13:28.277Z,31.35
2023-02-15T13:15:56.294Z,30.67
2023-02-15T13:18:44.083Z,32.35
2023-02-15T13:21:10.543Z,31.58
2023-02-15T13:23:37.434Z,31.40
2023-02-15T13:26:05.088Z,32.17
2023-02-15T13:28:51.474Z,31.17
2023-02-15T13:31:22.127Z,31.67
2023-02-15T13:33:59.387Z,33.05
2023-02-15T13:36:42.188Z,31.42
2023-02-15T13:39:13.492Z,32.92
2023-02-15T13:41:58.468Z,33.00
2023-02-15T13:44:24.740Z,32.22
2023-02-15T13:47:11.320Z,31.73
2023-02-15T13:49:47.003Z,32.53
2023-02-15T13:52:23.818Z,32.95
2023-02-15T13:55:02.964Z,33.55
2023-02-15T13:57:42.456Z,32.13
2023-02-15T14:00:22.164Z,32.72
2023-02-15T14:03:09.845Z,34.03
2023-02-15T14:05:36.133Z,34.80
2023-02-15T14:08:09.753Z,34.60
2023-02-15T14:10:43.770Z,34.65
2023-02-15T14:13:10.197Z,36.40
2023-02-15T14:15:41.234Z,34.75
2023-02-15T14:18:14.159Z,36.53
2023-02-15T14:20:43.472Z,35.45
2023-02-15T14:23:24.724Z,36.20
2023-02-15T14:25:54.313Z,36.55
2023-02-15T14:28:28.948Z,35.75
2023-02-15T14:30:55.435Z,36.58
2023-02-15T14:33:40.936Z,35.28
2023-02-15T14:36:08.277Z,37.00
2023-02-15T14:38:37.624Z,36.58
2023-02-15T14:41:05.067Z,37.28
2023-02-15T14:43:32.203Z,38.83
2023-02-15T14:46:05.188Z,38.25
2023-02-15T14:48:34.277Z,38.13
2023-02-15T14:51:00.803Z,37.83
2023-02-15T14:53:33.136Z,39.85
2023-02-15T14:56:11.736Z,40.05
2023-02-15T14:58:38.839Z,39.47
2023-02-15T15:01:08.936Z,40.08
2023-02-15T15:03:36.467Z,39.63
2023-02-15T15:06:05.836Z,40.13
2023-02-15T15:08:38.005Z,41.25
2023-02-15T15:11:42.087Z,40.63
2023-02-15T15:14:09.172Z,39.70
2023-02-15T15:16:35.437Z,41.40
2023-02-15T15:19:02.698Z,39.45
2023-02-15T15:21:47.459Z,41.42
2023-02-15T15:24:46.400Z,41.20
2023-02-15T15:27:31.215Z,41.25
2023-02-15T15:29:57.664Z,43.88
2023-02-15T15:32:27.809Z,40.25
2023-02-15T15:35:05.929Z,39.20
2023-02-15T15:37:43.467Z,41.95
2023-02-15T15:40:13.900Z,42.22
2023-02-15T15:42:50.877Z,45.15
2023-02-15T15:45:27.153Z,44.45
2023-02-15T15:48:07.738Z,43.15
2023-02-15T15:50:34.386Z,42.67
2023-02-15T15:53:02.234Z,42.28
2023-02-15T15:55:29.981Z,41.08
2023-02-15T15:58:07.006Z,41.65
2023-02-15T16:00:48.236Z,40.95
2023-02-15T16:03:15.933Z,39.30
2023-02-15T16:05:42.475Z,38.72
2023-02-15T16:08:08.765Z,38.85
2023-02-15T16:10:36.795Z,39.58
2023-02-15T16:13:03.327Z,39.35
2023-02-15T16:15:37.092Z,39.20
2023-02-15T16:20:37.019Z,37.13
2023-02-15T16:23:17.590Z,36.85
2023-02-15T16:26:02.661Z,39.85
2023-02-15T16:28:29.202Z,37.97
2023-02-15T16:30:59.850Z,39.78
2023-02-15T16:33:35.496Z,38.90
2023-02-15T16:36:04.082Z,39.03
2023-02-15T16:38:43.073Z,38.53
2023-02-15T16:41:11.164Z,38.58
2023-02-15T16:43:38.046Z,38.50
2023-02-15T16:46:06.111Z,39.45
2023-02-15T16:48:33.165Z,39.05
2023-02-15T16:50:59.822Z,38.83
2023-02-15T16:53:27.701Z,39.40
2023-02-15T16:55:55.359Z,39.95
2023-02-15T16:58:26.051Z,38.10
2023-02-15T17:00:56.124Z,38.08
2023-02-15T17:03:24.481Z,37.20
2023-02-15T17:05:52.388Z,30.02
2023-02-15T17:08:20.557Z,37.50
2023-02-15T17:11:02.197Z,29.38
2023-02-15T17:13:29.031Z,38.38
2023-02-15T17:16:01.397Z,36.88
2023-02-15T17:18:29.817Z,38.20
2023-02-15T17:20:59.631Z,38.85
2023-02-15T17:23:25.875Z,40.28
2023-02-15T17:25:52.831Z,38.15
2023-02-15T17:28:21.088Z,37.72
2023-02-15T17:30:47.952Z,35.10
2023-02-15T17:33:23.700Z,37.50
2023-02-15T17:36:03.455Z,29.67
2023-02-15T17:38:29.731Z,36.65
2023-02-15T17:40:57.255Z,32.10
2023-02-15T17:43:23.620Z,42.13
2023-02-15T17:45:50.775Z,40.00
2023-02-15T17:48:25.090Z,37.08
2023-02-15T17:50:51.443Z,36.20
2023-02-15T17:53:18.510Z,37.30
2023-02-15T17:55:45.438Z,37.60
2023-02-15T17:58:12.813Z,30.67
2023-02-15T18:00:59.912Z,39.10
2023-02-15T18:03:48.319Z,38.08
2023-02-15T18:06:33.366Z,37.42
2023-02-15T18:09:18.165Z,39.60
2023-02-15T18:11:48.619Z,39.13
2023-02-15T18:14:14.948Z,37.58
2023-02-15T18:16:43.308Z,40.72
2023-02-15T18:19:20.999Z,42.20
2023-02-15T18:21:47.427Z,41.90
2023-02-15T18:24:17.986Z,33.58
2023-02-15T18:26:44.436Z,43.58
2023-02-15T18:29:10.975Z,42.38
2023-02-15T18:31:37.504Z,43.83
2023-02-15T18:34:04.129Z,43.78
2023-02-15T18:36:32.558Z,45.50
2023-02-15T18:38:59.772Z,41.55
2023-02-15T18:41:26.518Z,42.03
2023-02-15T18:43:54.347Z,42.33
2023-02-15T18:46:21.037Z,43.85
2023-02-15T18:48:47.504Z,34.75
2023-02-15T18:51:21.306Z,43.97
2023-02-15T18:56:18.019Z,44.05
2023-02-15T18:58:47.523Z,43.50
2023-02-15T19:01:16.680Z,42.95
2023-02-15T19:03:50.230Z,45.47
2023-02-15T19:06:20.641Z,35.83
2023-02-15T19:08:48.817Z,42.83
2023-02-15T19:11:16.983Z,45.47
2023-02-15T19:13:43.262Z,45.08
2023-02-15T19:16:14.838Z,44.97
2023-02-15T19:18:41.234Z,45.20
2023-02-15T19:21:12.808Z,43.97
2023-02-15T19:23:39.086Z,44.83
2023-02-15T19:26:05.992Z,46.47
2023-02-15T19:28:34.025Z,47.00
2023-02-15T19:31:00.396Z,47.13
2023-02-15T19:33:26.766Z,45.80
2023-02-15T19:35:55.430Z,37.88
2023-02-15T19:38:25.116Z,46.58
2023-02-15T19:40:51.543Z,38.80
2023-02-15T19:43:19.334Z,41.83
2023-02-15T19:45:45.992Z,40.85
2023-02-15T19:48:13.865Z,39.13
2023-02-15T19:50:40.669Z,45.92
2023-02-15T19:53:14.575Z,48.40
2023-02-15T19:55:41.052Z,37.97
2023-02-15T19:58:11.221Z,40.88
2023-02-15T20:00:37.501Z,38.08
2023-02-15T20:03:03.808Z,37.22
2023-02-15T20:05:31.298Z,37.80
2023-02-15T20:07:58.089Z,37.47
2023-02-15T20:10:26.895Z,36.92
2023-02-15T20:12:54.989Z,41.85
2023-02-15T20:15:22.859Z,44.42
2023-02-15T20:17:49.955Z,42.80
2023-02-15T20:20:16.506Z,32.78
2023-02-15T20:22:44.010Z,41.15
2023-02-15T20:25:20.432Z,42.22
2023-02-15T20:27:47.238Z,41.97
2023-02-15T20:30:18.110Z,43.03
2023-02-15T20:32:44.519Z,44.08
2023-02-15T20:35:15.013Z,44.50
2023-02-15T20:37:41.458Z,44.22
2023-02-15T20:40:13.904Z,43.55
2023-02-15T20:42:40.188Z,46.08
2023-02-15T20:45:17.535Z,35.75
2023-02-15T20:47:48.271Z,36.28
2023-02-15T20:50:15.888Z,40.85
2023-02-15T20:52:42.267Z,40.22
2023-02-15T20:55:12.344Z,38.95
2023-02-15T20:57:38.609Z,36.35
2023-02-15T21:00:05.457Z,38.72
2023-02-15T21:02:31.845Z,36.25
2023-02-15T21:04:58.880Z,40.67
2023-02-15T21:07:25.170Z,35.58
2023-02-15T21:09:52.474Z,37.63
2023-02-15T21:12:19.564Z,37.92
2023-02-15T21:14:46.507Z,35.30
2023-02-15T21:17:14.010Z,36.33
2023-02-15T21:19:41.192Z,44.60
2023-02-15T21:22:10.683Z,36.95
2023-02-15T21:24:37.007Z,44.35
2023-02-15T21:27:04.089Z,34.60
2023-02-15T21:29:30.671Z,40.88
2023-02-15T21:31:58.401Z,41.38
2023-02-15T21:34:24.790Z,45.42
2023-02-15T21:36:51.271Z,43.65
2023-02-15T21:39:22.371Z,41.88
2023-02-15T21:42:07.937Z,43.67
2023-02-15T21:44:53.445Z,34.30
2023-02-15T21:47:39.301Z,36.50
2023-02-15T21:50:26.811Z,43.78
2023-02-15T21:52:53.374Z,36.55
2023-02-15T21:55:19.735Z,44.92
2023-02-15T21:57:46.037Z,44.38
2023-02-15T22:00:22.603Z,42.65
2023-02-15T22:02:50.897Z,41.47
2023-02-15T22:05:19.010Z,43.08
2023-02-15T22:07:45.845Z,42.60
2023-02-15T22:10:12.413Z,41.33
2023-02-15T22:12:39.405Z,45.25
2023-02-15T22:15:05.968Z,43.47
2023-02-15T22:17:34.348Z,46.58
2023-02-15T22:20:00.660Z,46.20
2023-02-15T22:22:27.000Z,44.72
2023-02-15T22:24:53.275Z,45.65
2023-02-15T22:27:27.242Z,53.58
2023-02-15T22:29:54.316Z,48.33
2023-02-15T22:32:22.586Z,52.67
2023-02-15T22:34:49.226Z,48.15
2023-02-15T22:37:15.688Z,46.22
2023-02-15T22:39:42.015Z,44.47
2023-02-15T22:42:20.799Z,55.50
2023-02-15T22:44:48.321Z,55.35
2023-02-15T22:47:19.658Z,51.78
2023-02-15T22:49:45.937Z,48.20
2023-02-15T22:52:13.242Z,47.75
2023-02-15T22:54:39.561Z,57.47
2023-02-15T22:57:06.188Z,51.20
2023-02-15T22:59:34.137Z,51.25
2023-02-15T23:02:00.826Z,46.42
2023-02-15T23:04:28.034Z,48.55
2023-02-15T23:06:55.428Z,47.63
2023-02-15T23:09:22.030Z,49.40
2023-02-15T23:11:49.379Z,48.80
2023-02-15T23:14:27.166Z,56.75
2023-02-15T23:16:54.129Z,53.58
2023-02-15T23:19:20.730Z,37.67
2023-02-15T23:21:47.126Z,47.95
2023-02-15T23:24:26.839Z,47.28
2023-02-15T23:26:53.412Z,43.17
2023-02-15T23:29:20.870Z,35.15
2023-02-15T23:31:48.900Z,47.53
2023-02-15T23:34:17.479Z,43.67
2023-02-15T23:36:44.362Z,42.65
2023-02-15T23:39:36.867Z,30.63
2023-02-15T23:42:07.397Z,41.35
2023-02-15T23:44:33.923Z,42.20
2023-02-15T23:47:00.259Z,42.08
2023-02-15T23:49:26.559Z,42.83
2023-02-15T23:51:53.847Z,31.98
2023-02-15T23:54:21.657Z,43.10
2023-02-15T23:56:52.834Z,44.60
2023-02-15T23:59:20.682Z,42.50
